Time;durP1;ratioP1;P1;durP2;ratioP2;P2;SDS_P1;SDS_P2;PMS_P1;PMS_P2;Temp;Humidity;BMP_temperature;BMP_pressure;BME280_temperature;BME280_humidity;BME280_pressure;Samples;Min_cycle;Max_cycle;Signal;HPM_P1;HPM_P2
2021/01/28 00:00:27;;;;;;;12.50;7.23;;;;;;;-1.49;84.11;98192.45;128332;1109;22895;-59
2021/01/28 00:02:54;;;;;;;13.37;7.13;;;;;;;-1.52;84.29;98184.85;128250;1111;22912;-58
2021/01/28 00:05:22;;;;;;;9.37;6.40;;;;;;;-1.50;84.15;98179.30;127985;1109;24043;-58
2021/01/28 00:07:50;;;;;;;11.33;7.10;;;;;;;-1.49;83.90;98176.42;124164;1109;23112;-58
2021/01/28 00:10:18;;;;;;;12.50;7.23;;;;;;;-1.48;84.12;98179.91;128188;1110;22849;-59
2021/01/28 00:12:46;;;;;;;11.33;6.73;;;;;;;-1.48;84.12;98169.23;128343;1109;22871;-58
2021/01/28 00:15:17;;;;;;;11.90;7.17;;;;;;;-1.50;84.10;98172.11;128169;1109;22895;-58
2021/01/28 00:17:45;;;;;;;11.47;6.70;;;;;;;-1.52;84.02;98182.19;128306;1109;23843;-58
2021/01/28 00:20:17;;;;;;;12.63;6.20;;;;;;;-1.52;83.95;98186.70;128221;1109;22991;-58
2021/01/28 00:22:45;;;;;;;14.07;7.20;;;;;;;-1.51;83.58;98183.83;128304;1109;25213;-58
2021/01/28 00:25:15;;;;;;;13.60;8.47;;;;;;;-1.50;83.84;98185.46;128186;1108;23826;-59
2021/01/28 00:27:43;;;;;;;17.33;10.40;;;;;;;-1.45;83.42;98177.64;128302;1109;22882;-59
2021/01/28 00:30:23;;;;;;;13.93;6.43;;;;;;;-1.42;82.95;98177.19;128172;1109;23919;-58
2021/01/28 00:32:50;;;;;;;12.43;7.00;;;;;;;-1.42;83.05;98171.02;128348;1109;22824;-59
2021/01/28 00:35:29;;;;;;;14.90;7.87;;;;;;;-1.42;83.46;98171.02;128177;1109;23093;-59
2021/01/28 00:37:56;;;;;;;14.07;8.43;;;;;;;-1.41;82.52;98167.32;128314;1109;22923;-58
2021/01/28 00:40:25;;;;;;;14.90;8.57;;;;;;;-1.37;82.09;98157.03;128215;1109;22891;-59
2021/01/28 00:42:53;;;;;;;16.90;9.07;;;;;;;-1.37;81.96;98146.34;128296;1108;23078;-59
2021/01/28 00:45:22;;;;;;;14.23;8.73;;;;;;;-1.38;82.15;98150.05;128227;1109;22882;-59
2021/01/28 00:47:53;;;;;;;16.53;9.53;;;;;;;-1.35;82.17;98173.67;128288;1109;23121;-59
2021/01/28 00:50:22;;;;;;;11.80;6.87;;;;;;;-1.34;81.77;98164.63;128173;1109;22924;-59
2021/01/28 00:52:49;;;;;;;12.17;6.90;;;;;;;-1.44;82.02;98141.85;128340;1108;24194;-59
2021/01/28 00:56:41;;;;;;;13.60;6.57;;;;;;;-1.33;81.89;98155.58;124248;1109;23218;-57
2021/01/28 00:59:10;;;;;;;12.43;6.80;;;;;;;-1.32;81.65;98155.36;128306;1108;23418;-58
2021/01/28 01:01:38;;;;;;;12.77;7.43;;;;;;;-1.31;81.80;98158.86;128196;1109;23572;-58
2021/01/28 01:04:06;;;;;;;13.37;8.30;;;;;;;-1.28;81.40;98155.73;128324;1109;22842;-58
2021/01/28 01:06:34;;;;;;;11.50;7.67;;;;;;;-1.27;81.72;98149.36;128195;1109;22843;-59
2021/01/28 01:09:02;;;;;;;12.90;7.60;;;;;;;-1.28;81.51;98140.52;128365;1109;22917;-59
2021/01/28 01:11:44;;;;;;;10.87;6.87;;;;;;;-1.31;81.57;98143.64;128131;1110;22926;-59
2021/01/28 01:14:12;;;;;;;13.77;7.70;;;;;;;-1.34;81.64;98136.06;128291;1109;23672;-59
2021/01/28 01:16:39;;;;;;;9.27;6.03;;;;;;;-1.35;81.48;98136.27;128200;1112;22886;-58
2021/01/28 01:19:11;;;;;;;16.40;7.60;;;;;;;-1.36;81.49;98132.78;128180;1112;22969;-58
2021/01/28 01:21:54;;;;;;;11.63;6.70;;;;;;;-1.37;82.20;98135.66;128160;1111;22990;-59
2021/01/28 01:24:24;;;;;;;15.63;7.53;;;;;;;-1.35;82.98;98133.59;128328;1111;22889;-58
2021/01/28 01:26:51;;;;;;;9.83;6.87;;;;;;;-1.34;82.51;98132.56;128204;1111;22962;-59
2021/01/28 01:29:20;;;;;;;11.73;6.87;;;;;;;-1.33;82.45;98136.88;128336;1110;22902;-59
2021/01/28 01:32:11;;;;;;;10.27;6.03;;;;;;;-1.34;82.08;98125.37;128131;1110;23640;-59
2021/01/28 01:34:58;;;;;;;9.48;5.70;;;;;;;-1.31;81.57;98127.61;128303;1111;22882;-58
2021/01/28 01:37:26;;;;;;;9.57;5.67;;;;;;;-1.30;81.80;98131.11;128208;1112;23140;-58
2021/01/28 01:39:54;;;;;;;9.80;6.40;;;;;;;-1.28;81.06;98129.02;128270;1111;22903;-59
2021/01/28 01:42:22;;;;;;;8.37;5.40;;;;;;;-1.28;80.97;98123.67;128169;1111;23790;-58
2021/01/28 01:44:49;;;;;;;10.10;5.80;;;;;;;-1.29;81.25;98120.17;128310;1111;22844;-59
2021/01/28 01:47:43;;;;;;;9.20;5.47;;;;;;;-1.27;81.45;98104.75;128118;1111;23069;-59
2021/01/28 01:50:36;;;;;;;9.07;5.43;;;;;;;-1.27;81.10;98096.73;128275;1111;22903;-59
2021/01/28 01:53:05;;;;;;;8.83;5.63;;;;;;;-1.28;81.04;98103.11;128235;1110;22886;-58
2021/01/28 01:55:33;;;;;;;8.67;5.40;;;;;;;-1.29;81.43;98101.47;128293;1112;22868;-58
2021/01/28 01:58:08;;;;;;;10.43;5.57;;;;;;;-1.29;81.03;98106.81;128168;1111;24022;-59
2021/01/28 02:00:52;;;;;;;10.27;5.60;;;;;;;-1.31;81.14;98092.89;128312;1111;23049;-58
2021/01/28 02:03:22;;;;;;;8.67;5.40;;;;;;;-1.29;81.11;98095.31;128162;1111;23805;-58
2021/01/28 02:06:36;;;;;;;8.00;5.57;;;;;;;-1.31;81.31;98095.55;128147;1112;23228;-58
2021/01/28 02:09:27;;;;;;;9.67;5.90;;;;;;;-1.30;81.32;98088.36;128079;1111;22846;-58
2021/01/28 02:12:13;;;;;;;8.80;4.97;;;;;;;-1.30;81.37;98086.51;128282;1111;23003;-59
2021/01/28 02:15:00;;;;;;;9.08;5.40;;;;;;;-1.29;81.49;98081.95;128117;1111;23250;-59
2021/01/28 02:17:41;;;;;;;9.47;6.00;;;;;;;-1.30;81.78;98081.17;128315;1111;22885;-58
2021/01/28 02:20:57;;;;;;;11.43;6.00;;;;;;;-1.33;81.98;98070.09;128163;1111;23645;-59
2021/01/28 02:23:36;;;;;;;8.63;6.40;;;;;;;-1.33;81.79;98052.20;128144;1111;22857;-59
2021/01/28 02:26:04;;;;;;;9.03;5.43;;;;;;;-1.34;81.96;98055.91;128309;1112;22846;-58
2021/01/28 02:28:32;;;;;;;11.03;6.53;;;;;;;-1.34;82.83;98047.08;128152;1111;24003;-59
2021/01/28 02:31:02;;;;;;;11.73;6.30;;;;;;;-1.34;82.46;98058.58;128310;1110;22898;-58
2021/01/28 02:33:37;;;;;;;9.20;5.93;;;;;;;-1.34;83.11;98060.44;128286;1111;22979;-58
2021/01/28 02:36:31;;;;;;;11.40;5.77;;;;;;;-1.32;82.70;98059.19;128185;1112;22861;-58
2021/01/28 02:39:11;;;;;;;10.47;5.97;;;;;;;-1.30;82.40;98057.13;128156;1111;23681;-58
2021/01/28 02:41:39;;;;;;;9.77;6.53;;;;;;;-1.29;81.79;98058.73;128257;1111;23665;-58
2021/01/28 02:44:16;;;;;;;10.87;6.40;;;;;;;-1.28;81.61;98071.05;128124;1112;22944;-59
2021/01/28 02:47:18;;;;;;;10.13;6.47;;;;;;;-1.25;82.07;98067.13;124576;1112;23080;-58
2021/01/28 02:50:07;;;;;;;10.20;6.30;;;;;;;-1.27;81.84;98064.67;128160;1111;22841;-58
2021/01/28 02:52:35;;;;;;;11.73;6.97;;;;;;;-1.26;81.66;98060.97;128271;1111;23579;-58
2021/01/28 02:55:09;;;;;;;11.17;6.67;;;;;;;-1.24;82.15;98068.77;128160;1112;22918;-59
2021/01/28 02:57:36;;;;;;;12.60;6.67;;;;;;;-1.22;81.83;98085.41;128318;1111;22847;-58
2021/01/28 03:00:08;;;;;;;11.53;7.47;;;;;;;-1.21;82.14;98092.39;128149;1111;23085;-59
2021/01/28 03:02:37;;;;;;;11.80;6.67;;;;;;;-1.20;81.64;98097.52;128320;1112;23694;-59
2021/01/28 03:05:05;;;;;;;11.40;6.80;;;;;;;-1.18;81.98;98082.09;128191;1110;22903;-59
2021/01/28 03:07:51;;;;;;;10.50;7.37;;;;;;;-1.16;81.52;98088.04;128272;1111;22888;-59
2021/01/28 03:10:21;;;;;;;12.53;7.10;;;;;;;-1.15;81.80;98078.14;128179;1111;22832;-59
2021/01/28 03:13:07;;;;;;;11.57;7.07;;;;;;;-1.14;82.15;98075.25;128343;1110;22879;-58
2021/01/28 03:16:04;;;;;;;12.40;6.73;;;;;;;-1.15;81.48;98073.61;128063;1111;22988;-59
2021/01/28 03:18:34;;;;;;;13.23;7.43;;;;;;;-1.14;81.93;98075.25;128337;1111;22823;-59
2021/01/28 03:21:06;;;;;;;14.53;8.33;;;;;;;-1.12;81.81;98059.00;128235;1111;22968;-59
2021/01/28 03:23:52;;;;;;;12.93;8.40;;;;;;;-1.14;81.69;98061.89;128327;1111;24011;-59
2021/01/28 03:26:35;;;;;;;11.67;7.83;;;;;;;-1.14;82.08;98067.23;128175;1111;22932;-58
2021/01/28 03:29:04;;;;;;;14.27;8.57;;;;;;;-1.12;81.69;98059.00;128326;1111;23437;-59
2021/01/28 03:31:36;;;;;;;12.23;8.17;;;;;;;-1.12;81.79;98062.49;128145;1111;22904;-58
2021/01/28 03:34:05;;;;;;;15.13;8.50;;;;;;;-1.09;81.55;98074.60;128315;1111;23756;-58
2021/01/28 03:36:33;;;;;;;12.63;7.67;;;;;;;-1.08;82.10;98063.70;128223;1111;23009;-59
2021/01/28 03:39:04;;;;;;;15.40;8.37;;;;;;;-1.10;81.37;98059.61;128333;1110;22955;-59
2021/01/28 03:41:32;;;;;;;14.13;9.27;;;;;;;-1.14;82.12;98064.56;128222;1110;22963;-59
2021/01/28 03:43:59;;;;;;;14.20;8.37;;;;;;;-1.13;81.46;98076.07;128309;1111;24240;-59
2021/01/28 03:46:27;;;;;;;13.63;10.27;;;;;;;-1.11;82.00;98050.77;128283;1111;22822;-59
2021/01/28 03:48:54;;;;;;;12.10;8.10;;;;;;;-1.09;81.83;98050.55;128205;1111;23355;-59
2021/01/28 03:51:29;;;;;;;17.07;9.27;;;;;;;-1.06;81.60;98052.80;128352;1110;22876;-59
2021/01/28 03:54:15;;;;;;;16.23;9.60;;;;;;;-1.07;81.62;98049.30;128395;1110;23951;-59
2021/01/28 03:56:48;;;;;;;16.53;9.83;;;;;;;-1.06;81.50;98063.48;128281;1110;22896;-59
2021/01/28 03:59:16;;;;;;;18.07;9.63;;;;;;;-1.04;81.60;98058.73;128199;1111;23735;-58
2021/01/28 04:02:06;;;;;;;19.30;10.50;;;;;;;-1.00;82.08;98062.59;128267;1111;23133;-58
2021/01/28 04:04:52;;;;;;;14.90;8.67;;;;;;;-1.01;81.60;98057.48;128356;1111;23022;-59
2021/01/28 04:07:54;;;;;;;17.03;10.27;;;;;;;-1.03;81.79;98051.55;128204;1110;22868;-58
2021/01/28 04:10:30;;;;;;;19.83;10.87;;;;;;;-1.06;82.07;98058.14;128320;1111;22796;-58
2021/01/28 04:12:58;;;;;;;16.50;9.60;;;;;;;-1.06;81.78;98058.14;128194;1111;22863;-59
2021/01/28 04:15:32;;;;;;;20.97;10.23;;;;;;;-1.07;82.17;98057.32;127660;1112;23069;-57
2021/01/28 04:18:02;;;;;;;17.83;9.83;;;;;;;-1.07;81.77;98057.32;128201;1111;22956;-59
2021/01/28 04:20:38;;;;;;;19.47;10.77;;;;;;;-1.04;81.40;98069.43;128310;1111;22823;-58
2021/01/28 04:23:08;;;;;;;17.80;10.00;;;;;;;-1.02;82.02;98075.38;128166;1110;22891;-59
2021/01/28 04:26:00;;;;;;;18.63;10.50;;;;;;;-0.99;82.03;98074.92;128297;1111;22885;-58
2021/01/28 04:28:28;;;;;;;22.33;10.50;;;;;;;-0.98;81.53;98065.86;128247;1111;23014;-59
2021/01/28 04:31:13;;;;;;;19.03;10.67;;;;;;;-0.96;81.75;98069.14;128326;1111;23118;-59
2021/01/28 04:33:41;;;;;;;17.73;11.60;;;;;;;-0.95;81.39;98064.61;128174;1111;22845;-59
2021/01/28 04:36:25;;;;;;;25.33;11.80;;;;;;;-0.91;81.45;98055.13;128325;1111;22990;-59
2021/01/28 04:39:12;;;;;;;16.00;9.97;;;;;;;-0.90;81.96;98051.41;128018;1112;23010;-59
2021/01/28 04:41:41;;;;;;;18.90;10.67;;;;;;;-0.91;81.95;98055.94;128355;1112;22812;-58
2021/01/28 04:44:09;;;;;;;16.80;10.17;;;;;;;-0.91;81.99;98039.08;128077;1111;22884;-59
2021/01/28 04:46:57;;;;;;;16.40;10.17;;;;;;;-0.92;81.95;98034.77;128311;1111;22894;-58
2021/01/28 04:49:48;;;;;;;34.97;16.87;;;;;;;-0.92;81.17;98042.79;128226;1111;23357;-58
2021/01/28 04:52:30;;;;;;;33.20;12.93;;;;;;;-0.92;82.22;98048.95;128313;1111;23734;-60
2021/01/28 04:55:24;;;;;;;15.10;9.20;;;;;;;-0.91;81.88;98045.25;128217;1112;22907;-59
2021/01/28 04:57:54;;;;;;;16.13;10.03;;;;;;;-0.92;82.01;98042.79;128361;1110;23007;-59
2021/01/28 05:00:32;;;;;;;21.23;12.67;;;;;;;-0.91;81.88;98044.42;128166;1111;23434;-59
2021/01/28 05:03:18;;;;;;;16.97;10.17;;;;;;;-0.92;81.63;98024.90;128333;1111;23106;-58
2021/01/28 05:05:59;;;;;;;16.90;9.97;;;;;;;-0.92;81.54;98030.24;128260;1111;23633;-59
2021/01/28 05:08:43;;;;;;;16.40;10.07;;;;;;;-0.94;82.58;98010.11;128346;1112;23482;-59
2021/01/28 05:11:32;;;;;;;16.50;10.17;;;;;;;-0.94;82.20;98002.09;128241;1111;22849;-59
2021/01/28 05:14:33;;;;;;;18.80;10.87;;;;;;;-0.96;82.50;97994.29;128317;1110;22902;-59
2021/01/28 05:17:40;;;;;;;13.70;9.20;;;;;;;-0.94;82.51;98004.77;128159;1112;22889;-58
2021/01/28 05:20:37;;;;;;;14.90;9.63;;;;;;;-0.93;82.44;98009.89;128143;1111;23283;-59
2021/01/28 05:23:34;;;;;;;16.70;9.70;;;;;;;-0.92;82.66;98021.41;128043;1112;23017;-59
2021/01/28 05:26:23;;;;;;;15.60;9.03;;;;;;;-0.90;82.11;98014.80;128143;1112;22897;-59
2021/01/28 05:29:23;;;;;;;16.67;10.53;;;;;;;-0.89;82.16;98015.62;128286;1112;22879;-59
2021/01/28 05:31:59;;;;;;;16.37;9.97;;;;;;;-0.88;81.98;98011.91;128172;1111;22912;-59
2021/01/28 05:34:34;;;;;;;21.60;10.83;;;;;;;-0.88;82.12;98004.71;128309;1112;22883;-59
2021/01/28 05:37:23;;;;;;;16.20;10.20;;;;;;;-0.85;83.61;98003.42;128154;1111;22920;-59
2021/01/28 05:40:17;;;;;;;18.57;10.10;;;;;;;-0.87;84.19;98010.88;128251;1111;22985;-59
2021/01/28 05:42:51;;;;;;;;;;;;;;;-0.89;84.56;98005.75;128196;1112;22918;-59
2021/01/28 05:45:21;;;;;;;;;;;;;;;-0.89;84.07;98004.93;128095;1112;21428;-59
2021/01/28 05:48:28;;;;;;;19.53;10.10;;;;;;;-0.88;83.62;97999.36;128097;1112;22973;-59
2021/01/28 05:51:20;;;;;;;18.93;10.33;;;;;;;-0.84;83.37;98007.73;128330;1112;22983;-59
2021/01/28 05:54:00;;;;;;;16.53;10.33;;;;;;;-0.85;83.67;98009.59;128290;1110;23009;-59
2021/01/28 05:56:44;;;;;;;16.37;9.73;;;;;;;-0.85;83.41;98014.94;128315;1111;22992;-59
2021/01/28 05:59:22;;;;;;;16.83;11.27;;;;;;;-0.88;84.71;98014.59;128336;1111;22987;-59
2021/01/28 06:02:37;;;;;;;17.57;10.33;;;;;;;-0.88;84.54;98003.89;128191;1111;22859;-59
2021/01/28 06:05:42;;;;;;;17.23;9.67;;;;;;;-0.89;83.96;98011.09;128140;1111;22876;-60
2021/01/28 06:08:25;;;;;;;16.53;10.53;;;;;;;-0.90;83.47;98004.11;128127;1111;22960;-59
2021/01/28 06:11:17;;;;;;;19.50;10.67;;;;;;;-0.89;83.07;98005.75;128324;1111;22815;-60
2021/01/28 06:14:13;;;;;;;15.32;10.40;;;;;;;-0.91;82.94;98012.34;128082;1109;22889;-59
2021/01/28 06:17:28;;;;;;;18.57;11.13;;;;;;;-0.91;83.28;98020.37;128219;1111;22961;-60
2021/01/28 06:21:00;;;;;;;25.03;13.07;;;;;;;-0.94;83.50;98024.30;128078;1112;22815;-64
2021/01/28 06:23:50;;;;;;;23.20;12.00;;;;;;;-0.94;83.04;98010.93;128152;1111;22956;-64
2021/01/28 06:26:49;;;;;;;18.87;11.13;;;;;;;-0.92;82.91;98014.20;128262;1112;22947;-65
2021/01/28 06:29:32;;;;;;;21.33;12.43;;;;;;;-0.90;82.92;98025.50;128053;1112;22859;-64
2021/01/28 06:32:20;;;;;;;21.30;12.50;;;;;;;-0.91;83.03;98029.20;128227;1110;23453;-63
2021/01/28 06:35:33;;;;;;;18.60;11.50;;;;;;;-0.90;83.10;98022.01;128106;1110;22975;-64
2021/01/28 06:38:20;;;;;;;20.93;11.70;;;;;;;-0.89;82.97;98012.95;128139;1111;23557;-65
2021/01/28 06:41:09;;;;;;;19.67;12.07;;;;;;;-0.87;82.24;98002.86;128260;1112;23351;-64
2021/01/28 06:44:31;;;;;;;23.17;12.80;;;;;;;-0.89;82.86;98004.93;128143;1111;23081;-62
2021/01/28 06:47:18;;;;;;;23.03;13.67;;;;;;;-0.90;82.93;97995.27;128234;1111;22871;-63
2021/01/28 06:50:18;;;;;;;23.87;12.40;;;;;;;-0.90;83.07;97993.42;128056;1112;22895;-64
2021/01/28 06:52:48;;;;;;;23.00;11.07;;;;;;;-0.88;83.00;97990.52;128288;1112;22815;-62
2021/01/28 06:56:02;;;;;;;20.07;11.47;;;;;;;-0.88;82.94;97994.02;128142;1110;22910;-61
2021/01/28 06:59:43;;;;;;;24.13;11.33;;;;;;;-0.92;85.63;97971.43;127910;1115;23023;-64
2021/01/28 07:02:18;;;;;;;22.40;13.20;;;;;;;-0.92;85.57;97982.13;127560;1118;24659;-63
2021/01/28 07:05:20;;;;;;;19.50;9.50;;;;;;;-0.90;86.03;97981.91;127408;1118;22992;-62
2021/01/28 07:07:56;;;;;;;18.47;11.13;;;;;;;-0.91;86.22;97981.09;127558;1118;22945;-62
2021/01/28 07:10:40;;;;;;;18.63;10.93;;;;;;;-0.91;85.81;97967.72;127405;1118;22912;-63
2021/01/28 07:13:32;;;;;;;17.90;10.33;;;;;;;-0.88;86.57;97974.48;127507;1118;23100;-63
2021/01/28 07:16:21;;;;;;;17.43;10.93;;;;;;;-0.88;86.06;97969.95;127418;1118;22896;-64
2021/01/28 07:18:50;;;;;;;18.83;10.53;;;;;;;-0.89;86.22;97960.30;127562;1118;22917;-63
2021/01/28 07:21:37;;;;;;;18.53;10.97;;;;;;;-0.89;85.98;97951.46;127443;1118;23072;-62
2021/01/28 07:24:11;;;;;;;16.23;9.13;;;;;;;-0.93;86.40;97951.08;127546;1118;22971;-64
2021/01/28 07:26:46;;;;;;;18.80;10.10;;;;;;;-0.95;87.22;97941.65;127542;1115;22894;-63
2021/01/28 07:29:38;;;;;;;15.87;9.57;;;;;;;-0.97;86.97;97957.91;127638;1115;22893;-64
2021/01/28 07:32:07;;;;;;;16.03;9.53;;;;;;;-0.99;87.88;97956.48;127579;1115;22882;-62
2021/01/28 07:34:43;;;;;;;18.73;9.98;;;;;;;-1.00;87.73;97960.20;127933;1113;22890;-64
2021/01/28 07:37:22;;;;;;;14.50;8.77;;;;;;;-0.97;87.18;97959.77;127894;1110;22892;-63
2021/01/28 07:40:09;;;;;;;16.07;9.30;;;;;;;-0.96;87.58;97970.23;128349;1109;22829;-64
2021/01/28 07:43:05;;;;;;;13.85;8.35;;;;;;;-0.94;86.98;97967.34;128158;1107;22891;-60
2021/01/28 07:46:31;;;;;;;15.87;9.37;;;;;;;-0.90;87.65;97973.89;128115;1108;22987;-62
2021/01/28 07:49:20;;;;;;;14.47;8.90;;;;;;;-0.87;87.00;97976.94;127985;1112;23006;-64
2021/01/28 07:52:15;;;;;;;12.40;7.63;;;;;;;-0.88;87.22;97966.47;128032;1112;22910;-63
2021/01/28 07:54:46;;;;;;;13.50;8.30;;;;;;;-0.89;86.88;97954.13;128177;1112;23101;-64
2021/01/28 07:57:29;;;;;;;14.40;8.60;;;;;;;-0.90;86.55;97961.34;127942;1112;23036;-64
2021/01/28 08:00:06;;;;;;;12.80;7.97;;;;;;;-0.88;86.46;97967.28;128227;1112;23013;-62
2021/01/28 08:02:41;;;;;;;11.57;7.17;;;;;;;-0.84;86.54;97978.33;128116;1112;24029;-61
2021/01/28 08:05:16;;;;;;;17.30;8.37;;;;;;;-0.83;86.46;97974.61;128197;1112;22894;-60
2021/01/28 08:07:46;;;;;;;18.40;10.20;;;;;;;-0.81;86.44;97985.91;128130;1112;22916;-59
2021/01/28 08:10:19;;;;;;;16.87;10.00;;;;;;;-0.79;86.86;97975.81;128182;1110;22887;-59
2021/01/28 08:12:53;;;;;;;15.60;8.70;;;;;;;-0.79;86.82;97984.65;128100;1111;22875;-59
2021/01/28 08:15:39;;;;;;;14.80;9.00;;;;;;;-0.78;86.79;97990.81;128196;1112;23048;-59
2021/01/28 08:18:16;;;;;;;17.03;10.53;;;;;;;-0.74;86.67;97995.50;127993;1111;23956;-59
2021/01/28 08:20:44;;;;;;;16.43;9.80;;;;;;;-0.71;86.38;97992.36;128256;1111;23040;-59
2021/01/28 08:23:24;;;;;;;17.50;10.60;;;;;;;-0.69;86.79;97965.39;128061;1111;23029;-60
2021/01/28 08:25:58;;;;;;;19.63;12.07;;;;;;;-0.68;86.73;97964.36;128341;1108;22903;-59
2021/01/28 08:28:27;;;;;;;17.07;9.73;;;;;;;-0.67;86.32;97968.67;128351;1108;23791;-60
2021/01/28 08:31:23;;;;;;;15.23;9.35;;;;;;;-0.64;86.36;97960.20;128359;1108;22870;-60
2021/01/28 08:34:19;;;;;;;16.60;9.83;;;;;;;-0.65;86.90;97961.24;128345;1109;22975;-60
2021/01/28 08:37:11;;;;;;;16.27;9.50;;;;;;;-0.64;86.24;97965.55;128304;1109;22839;-60
2021/01/28 08:39:59;;;;;;;16.37;9.03;;;;;;;-0.63;86.40;97966.37;128350;1109;22956;-61
2021/01/28 08:42:47;;;;;;;15.60;8.70;;;;;;;-0.61;86.00;97966.97;128373;1108;23670;-60
2021/01/28 08:45:35;;;;;;;13.48;8.30;;;;;;;-0.58;86.06;97964.66;128383;1109;22876;-60
2021/01/28 08:48:24;;;;;;;13.13;8.33;;;;;;;-0.57;85.86;97955.57;128342;1109;22871;-60
2021/01/28 08:50:51;;;;;;;14.73;8.57;;;;;;;-0.56;86.66;97957.20;127924;1109;22864;-60
2021/01/28 08:53:22;;;;;;;13.70;8.47;;;;;;;-0.57;86.36;97960.10;128263;1109;22858;-61
2021/01/28 08:55:50;;;;;;;19.90;8.60;;;;;;;-0.57;86.14;97954.75;128249;1109;23415;-60
2021/01/28 08:58:18;;;;;;;14.10;8.37;;;;;;;-0.56;85.60;97957.20;128277;1109;22810;-61
2021/01/28 09:00:47;;;;;;;14.13;8.50;;;;;;;-0.55;85.20;97958.84;128163;1108;22827;-60
2021/01/28 09:03:18;;;;;;;16.20;8.97;;;;;;;-0.53;85.36;97951.41;128294;1109;23411;-60
2021/01/28 09:05:46;;;;;;;16.57;9.70;;;;;;;-0.53;85.34;97954.09;128154;1108;23546;-60
2021/01/28 09:08:31;;;;;;;13.93;8.30;;;;;;;-0.53;85.16;97940.72;128300;1108;22902;-60
2021/01/28 09:11:18;;;;;;;11.87;8.10;;;;;;;-0.54;85.62;97931.05;128253;1108;22814;-60
2021/01/28 09:14:28;;;;;;;12.63;7.83;;;;;;;-0.53;86.15;97940.72;128286;1108;22831;-60
2021/01/28 09:17:28;;;;;;;13.13;7.03;;;;;;;-0.53;85.67;97934.55;127904;1112;23017;-60
2021/01/28 09:19:59;;;;;;;15.67;8.30;;;;;;;-0.49;84.97;97933.88;128143;1112;22914;-60
2021/01/28 09:22:38;;;;;;;12.87;8.30;;;;;;;-0.48;84.74;97927.48;127861;1111;22895;-60
2021/01/28 09:25:19;;;;;;;13.03;7.87;;;;;;;-0.46;85.47;97921.91;128220;1112;22904;-60
2021/01/28 09:28:02;;;;;;;11.93;7.03;;;;;;;-0.44;84.42;97936.70;128136;1111;23020;-60
2021/01/28 09:30:35;;;;;;;11.23;7.53;;;;;;;-0.43;84.99;97929.46;128206;1112;22865;-60
2021/01/28 09:33:38;;;;;;;11.07;7.07;;;;;;;-0.43;84.87;97916.09;128159;1111;22993;-60
2021/01/28 09:36:18;;;;;;;10.53;6.60;;;;;;;-0.44;83.53;97912.63;127818;1115;22960;-60
2021/01/28 09:39:04;;;;;;;;;;;;;;;-0.44;84.69;97901.11;127988;1115;23758;-60
2021/01/28 09:41:37;;;;;;;11.47;7.37;;;;;;;-0.45;83.99;97908.31;127834;1114;21452;-60
2021/01/28 09:44:31;;;;;;;11.30;7.20;;;;;;;-0.42;84.29;97901.67;127988;1115;22923;-60
2021/01/28 09:47:11;;;;;;;11.20;7.07;;;;;;;-0.41;84.03;97917.50;127806;1113;22867;-60
2021/01/28 09:49:39;;;;;;;11.60;6.83;;;;;;;-0.38;83.89;97922.41;127966;1112;23606;-59
2021/01/28 09:52:41;;;;;;;12.23;6.95;;;;;;;-0.35;83.74;97918.45;128096;1112;22873;-60
2021/01/28 09:55:10;;;;;;;12.83;6.50;;;;;;;-0.36;83.65;97901.59;128264;1112;22945;-60
2021/01/28 09:57:37;;;;;;;11.20;5.90;;;;;;;-0.36;84.50;97888.21;128095;1111;22897;-60
2021/01/28 10:00:07;;;;;;;9.30;6.10;;;;;;;-0.34;83.75;97896.02;128029;1112;23037;-60
2021/01/28 10:02:51;;;;;;;11.37;6.73;;;;;;;-0.36;83.80;97885.53;128163;1111;22854;-60
2021/01/28 10:05:21;;;;;;;10.80;6.93;;;;;;;-0.38;85.03;97876.92;128270;1111;23887;-60
2021/01/28 10:07:49;;;;;;;11.23;7.07;;;;;;;-0.42;85.45;97886.44;128138;1111;22845;-60
2021/01/28 10:10:18;;;;;;;10.87;5.87;;;;;;;-0.43;85.49;97886.66;128286;1109;22894;-59
2021/01/28 10:12:46;;;;;;;8.20;5.07;;;;;;;-0.41;84.55;97893.42;128180;1109;22816;-60
2021/01/28 10:15:14;;;;;;;11.67;5.73;;;;;;;-0.38;84.50;97892.97;128400;1108;22971;-60
2021/01/28 10:17:44;;;;;;;12.07;6.80;;;;;;;-0.34;84.87;97889.84;128238;1108;22954;-60
2021/01/28 10:20:13;;;;;;;8.63;5.97;;;;;;;-0.32;84.20;97888.58;128276;1108;22934;-60
2021/01/28 10:22:41;;;;;;;10.50;5.63;;;;;;;-0.33;84.27;97897.65;128324;1108;22844;-60
2021/01/28 10:25:13;;;;;;;9.20;4.93;;;;;;;-0.30;83.22;97893.70;128300;1109;23587;-60
2021/01/28 10:27:40;;;;;;;9.60;5.47;;;;;;;-0.31;83.71;97900.92;128386;1108;22858;-60
2021/01/28 10:30:09;;;;;;;7.67;4.87;;;;;;;-0.27;83.86;97903.93;128226;1109;23505;-60
2021/01/28 10:32:37;;;;;;;8.30;4.67;;;;;;;-0.26;84.06;97893.00;128316;1108;22894;-60
2021/01/28 10:35:05;;;;;;;8.80;4.87;;;;;;;-0.26;83.18;97892.18;128238;1108;22892;-60
2021/01/28 10:37:32;;;;;;;8.73;5.50;;;;;;;-0.27;82.73;97891.36;128389;1108;22948;-60
2021/01/28 10:40:00;;;;;;;11.90;5.77;;;;;;;-0.31;83.20;97884.05;128169;1107;23082;-60
2021/01/28 10:42:31;;;;;;;7.47;5.03;;;;;;;-0.28;84.04;97894.27;128273;1108;22962;-60
2021/01/28 10:44:59;;;;;;;10.87;5.37;;;;;;;-0.31;84.01;97892.07;128211;1109;22843;-59
2021/01/28 10:47:27;;;;;;;9.73;5.70;;;;;;;-0.31;83.54;97889.39;128372;1108;22828;-60
2021/01/28 10:50:10;;;;;;;6.77;4.57;;;;;;;-0.32;83.96;97880.55;128194;1108;22831;-60
2021/01/28 10:52:37;;;;;;;9.60;5.37;;;;;;;-0.30;83.04;97891.03;128303;1109;22939;-60
2021/01/28 10:55:06;;;;;;;7.23;4.93;;;;;;;-0.31;83.11;97897.42;128169;1109;22871;-60
2021/01/28 10:57:33;;;;;;;7.50;4.70;;;;;;;-0.32;83.01;97909.98;128279;1108;23745;-60
2021/01/28 11:00:00;;;;;;;7.27;4.20;;;;;;;-0.30;83.18;97915.11;128199;1108;22841;-60
2021/01/28 11:02:28;;;;;;;7.10;4.13;;;;;;;-0.25;83.40;97917.90;128343;1108;22887;-60
2021/01/28 11:04:55;;;;;;;10.57;5.47;;;;;;;-0.21;83.19;97901.17;128154;1108;22819;-60
2021/01/28 11:07:23;;;;;;;8.60;5.30;;;;;;;-0.18;83.52;97902.58;128322;1109;22867;-60
2021/01/28 11:09:50;;;;;;;9.80;6.40;;;;;;;-0.20;83.26;97900.13;128191;1108;22889;-60
2021/01/28 11:12:18;;;;;;;7.10;5.03;;;;;;;-0.25;83.28;97896.49;128394;1108;22818;-60
2021/01/28 11:14:45;;;;;;;7.97;5.40;;;;;;;-0.27;84.08;97883.34;128343;1108;22820;-60
2021/01/28 11:17:13;;;;;;;9.80;5.33;;;;;;;-0.29;84.18;97882.77;128303;1107;22862;-60
2021/01/28 11:19:40;;;;;;;7.43;4.80;;;;;;;-0.29;83.59;97880.10;128319;1108;23066;-59
2021/01/28 11:22:08;;;;;;;9.93;4.43;;;;;;;-0.30;83.68;97872.30;128190;1107;23034;-60
2021/01/28 11:24:35;;;;;;;7.00;4.33;;;;;;;-0.32;83.27;97859.14;128258;1108;22897;-60
2021/01/28 11:27:02;;;;;;;8.53;5.30;;;;;;;-0.33;83.41;97860.19;128245;1108;22887;-60
2021/01/28 11:29:30;;;;;;;7.63;5.03;;;;;;;-0.32;84.19;97861.00;128375;1108;23450;-60
2021/01/28 11:31:57;;;;;;;8.40;5.20;;;;;;;-0.34;84.35;97849.71;128232;1108;22950;-59
2021/01/28 11:34:27;;;;;;;10.87;6.20;;;;;;;-0.34;83.23;97847.03;128335;1109;22959;-60
2021/01/28 11:36:55;;;;;;;11.43;5.93;;;;;;;-0.31;84.26;97847.40;128191;1107;22998;-60
2021/01/28 11:39:22;;;;;;;8.97;5.53;;;;;;;-0.30;84.61;97837.52;128346;1109;22833;-60
2021/01/28 11:41:49;;;;;;;15.00;7.77;;;;;;;-0.31;84.18;97842.05;128226;1109;23013;-60
2021/01/28 11:44:17;;;;;;;13.77;7.13;;;;;;;-0.33;84.39;97841.45;128384;1108;22972;-60
2021/01/28 11:46:44;;;;;;;12.67;6.63;;;;;;;-0.31;83.47;97834.02;128252;1108;23616;-60
2021/01/28 11:49:14;;;;;;;11.50;7.03;;;;;;;-0.28;83.92;97827.37;128280;1108;22876;-60
2021/01/28 11:51:42;;;;;;;13.97;7.10;;;;;;;-0.26;83.60;97819.93;128205;1109;22824;-60
2021/01/28 11:54:09;;;;;;;11.23;6.17;;;;;;;-0.26;84.10;97826.09;128293;1108;23483;-60
2021/01/28 11:56:37;;;;;;;10.97;6.57;;;;;;;-0.24;83.61;97828.55;128248;1108;22932;-60
2021/01/28 11:59:05;;;;;;;12.75;6.55;;;;;;;-0.25;83.00;97813.53;128348;1108;22868;-60
2021/01/28 12:01:33;;;;;;;10.30;6.77;;;;;;;-0.24;83.94;97807.14;128303;1108;22889;-60
2021/01/28 12:04:01;;;;;;;12.60;6.83;;;;;;;-0.23;83.31;97803.42;128344;1108;22868;-60
2021/01/28 12:06:28;;;;;;;11.83;6.20;;;;;;;-0.22;83.57;97800.52;128322;1109;22876;-60
2021/01/28 12:08:55;;;;;;;10.23;5.73;;;;;;;-0.22;83.88;97797.02;128122;1108;22872;-60